createdAt,value
2022-08-22T00:00:32.319Z,8.65
2022-08-22T00:02:42.952Z,6.75
2022-08-22T00:06:08.131Z,5.28
2022-08-22T00:08:48.283Z,5.60
2022-08-22T00:11:39.488Z,6.10
2022-08-22T00:14:20.013Z,7.18
2022-08-22T00:16:54.283Z,4.95
2022-08-22T00:19:52.079Z,6.15
2022-08-22T00:22:46.329Z,6.45
2022-08-22T00:25:35.196Z,5.63
2022-08-22T00:28:24.694Z,7.05
2022-08-22T00:30:56.386Z,10.32
2022-08-22T00:33:47.024Z,5.35
2022-08-22T00:37:00.314Z,5.55
2022-08-22T00:39:40.270Z,5.63
2022-08-22T00:42:31.908Z,8.35
2022-08-22T00:45:21.553Z,4.47
2022-08-22T00:48:33.594Z,6.63
2022-08-22T00:51:23.236Z,9.05
2022-08-22T00:56:47.276Z,6.47
2022-08-22T00:59:48.079Z,8.80
2022-08-22T01:02:33.773Z,7.25
2022-08-22T01:05:17.158Z,6.10
2022-08-22T01:08:08.313Z,5.93
2022-08-22T01:10:45.523Z,9.00
2022-08-22T01:13:47.303Z,7.00
2022-08-22T01:16:44.510Z,9.48
2022-08-22T01:19:46.223Z,7.07
2022-08-22T01:22:23.224Z,10.65
2022-08-22T01:25:31.336Z,7.95
2022-08-22T01:28:43.438Z,5.70
2022-08-22T01:31:40.818Z,5.03
2022-08-22T01:34:46.872Z,4.45
2022-08-22T01:37:33.240Z,11.23
2022-08-22T01:40:20.433Z,6.32
2022-08-22T01:43:08.988Z,6.10
2022-08-22T01:46:00.027Z,5.30
2022-08-22T01:48:49.346Z,8.65
2022-08-22T01:51:46.561Z,10.10
2022-08-22T01:54:32.729Z,6.85
2022-08-22T01:57:07.920Z,8.05
2022-08-22T01:59:42.422Z,8.07
2022-08-22T02:02:32.668Z,7.47
2022-08-22T02:05:11.943Z,7.68
2022-08-22T02:07:54.601Z,6.85
2022-08-22T02:10:48.375Z,7.13
2022-08-22T02:13:23.251Z,7.65
2022-08-22T02:16:08.729Z,7.40
2022-08-22T02:19:00.938Z,5.35
2022-08-22T02:21:42.875Z,11.60
2022-08-22T02:24:34.789Z,7.65
2022-08-22T02:27:33.491Z,13.07
2022-08-22T02:30:04.958Z,6.80
2022-08-22T02:32:41.826Z,6.18
2022-08-22T02:35:32.556Z,9.40
2022-08-22T02:38:34.767Z,9.27
2022-08-22T02:41:16.324Z,6.07
2022-08-22T02:43:54.052Z,6.88
2022-08-22T02:46:43.371Z,7.72
2022-08-22T02:49:20.294Z,9.88
2022-08-22T02:52:41.629Z,8.02
2022-08-22T02:55:15.866Z,11.02
2022-08-22T02:57:52.727Z,5.75
2022-08-22T03:00:31.369Z,5.45
2022-08-22T03:03:22.181Z,5.25
2022-08-22T03:06:02.635Z,7.53
2022-08-22T03:08:35.560Z,5.53
2022-08-22T03:11:26.461Z,7.18
2022-08-22T03:14:01.584Z,7.05
2022-08-22T03:16:34.135Z,9.77
2022-08-22T03:19:18.611Z,4.78
2022-08-22T03:22:29.997Z,8.88
2022-08-22T03:25:19.150Z,5.00
2022-08-22T03:28:00.940Z,4.45
2022-08-22T03:30:34.931Z,8.43
2022-08-22T03:33:23.855Z,4.85
2022-08-22T03:36:07.446Z,12.93
2022-08-22T03:38:35.156Z,7.43
2022-08-22T03:41:40.268Z,4.55
2022-08-22T03:44:27.372Z,5.90
2022-08-22T03:47:40.385Z,5.85
2022-08-22T03:50:23.257Z,6.95
2022-08-22T03:53:07.710Z,9.57
2022-08-22T03:56:07.978Z,6.90
2022-08-22T03:58:56.126Z,7.53
2022-08-22T04:01:47.514Z,7.10
2022-08-22T04:04:46.978Z,10.48
2022-08-22T04:07:33.323Z,10.85
2022-08-22T04:10:31.368Z,5.70
2022-08-22T04:13:14.892Z,5.72
2022-08-22T04:15:57.372Z,6.43
2022-08-22T04:19:02.295Z,6.55
2022-08-22T04:21:53.176Z,9.00
2022-08-22T04:24:52.887Z,14.05
2022-08-22T04:27:42.005Z,7.93
2022-08-22T04:30:34.752Z,9.73
2022-08-22T04:33:14.528Z,8.18
2022-08-22T04:35:57.676Z,7.18
2022-08-22T04:38:37.606Z,6.03
2022-08-22T04:41:17.883Z,9.73
2022-08-22T04:43:50.241Z,7.53
2022-08-22T04:46:18.172Z,5.95
2022-08-22T04:48:50.426Z,9.93
2022-08-22T04:51:25.869Z,9.30
2022-08-22T04:54:05.774Z,6.43
2022-08-22T04:56:45.984Z,6.00
2022-08-22T04:59:17.210Z,6.78
2022-08-22T05:01:47.078Z,8.20
2022-08-22T05:04:26.444Z,6.45
2022-08-22T05:06:56.873Z,6.82
2022-08-22T05:09:30.300Z,8.02
2022-08-22T05:12:03.353Z,6.93
2022-08-22T05:14:40.236Z,9.75
2022-08-22T05:17:09.556Z,12.20
2022-08-22T05:19:40.475Z,4.85
2022-08-22T05:22:13.589Z,8.48
2022-08-22T05:24:46.422Z,6.30
2022-08-22T05:27:21.580Z,8.05
2022-08-22T05:29:53.754Z,7.35
2022-08-22T05:32:29.700Z,7.63
2022-08-22T05:35:03.131Z,6.57
2022-08-22T05:37:53.418Z,8.50
2022-08-22T05:40:26.214Z,9.95
2022-08-22T05:42:56.393Z,8.23
2022-08-22T05:45:25.664Z,6.40
2022-08-22T05:48:04.218Z,3.92
2022-08-22T05:50:37.344Z,8.93
2022-08-22T05:53:14.492Z,8.48
2022-08-22T05:56:06.640Z,7.25
2022-08-22T05:58:41.510Z,4.55
2022-08-22T06:01:37.859Z,6.72
2022-08-22T06:04:08.353Z,8.75
2022-08-22T06:07:01.599Z,7.90
2022-08-22T06:09:58.637Z,11.18
2022-08-22T06:12:44.392Z,7.70
2022-08-22T06:15:23.325Z,9.27
2022-08-22T06:17:57.092Z,7.10
2022-08-22T06:20:45.394Z,9.15
2022-08-22T06:23:17.785Z,5.05
2022-08-22T06:25:48.953Z,12.00
2022-08-22T06:28:54.774Z,6.13
2022-08-22T06:31:34.533Z,6.45
2022-08-22T06:34:17.632Z,7.43
2022-08-22T06:36:50.342Z,7.75
2022-08-22T06:39:23.673Z,8.88
2022-08-22T06:42:16.968Z,5.45
2022-08-22T06:44:45.998Z,9.88
2022-08-22T06:47:19.053Z,10.88
2022-08-22T06:49:46.970Z,4.55
2022-08-22T06:52:27.251Z,5.80
2022-08-22T06:55:00.423Z,8.38
2022-08-22T06:57:40.286Z,7.35
2022-08-22T07:00:12.929Z,5.50
2022-08-22T07:02:48.895Z,5.72
2022-08-22T07:05:24.085Z,7.57
2022-08-22T07:07:53.092Z,5.20
2022-08-22T07:10:22.959Z,5.05
2022-08-22T07:12:54.498Z,4.80
2022-08-22T07:15:36.842Z,10.18
2022-08-22T07:18:09.435Z,5.53
2022-08-22T07:20:42.202Z,6.38
2022-08-22T07:23:12.925Z,7.10
2022-08-22T07:25:54.426Z,6.47
2022-08-22T07:28:51.604Z,5.38
2022-08-22T07:31:53.864Z,5.40
2022-08-22T07:34:40.776Z,5.65
2022-08-22T07:37:24.945Z,5.53
2022-08-22T07:40:09.101Z,8.27
2022-08-22T07:42:56.598Z,4.30
2022-08-22T07:45:37.120Z,5.43
2022-08-22T07:48:25.427Z,6.13
2022-08-22T07:51:00.999Z,6.28
2022-08-22T07:53:37.084Z,4.18
2022-08-22T07:56:07.838Z,13.07
2022-08-22T07:58:39.587Z,7.82
2022-08-22T08:01:10.648Z,4.85
2022-08-22T08:03:39.192Z,9.50
2022-08-22T08:06:10.337Z,4.95
2022-08-22T08:08:44.221Z,4.28
2022-08-22T08:11:15.775Z,7.72
2022-08-22T08:13:51.559Z,3.78
2022-08-22T08:16:23.357Z,7.45
2022-08-22T08:18:56.792Z,5.32
2022-08-22T08:21:39.763Z,4.43
2022-08-22T08:24:14.052Z,8.52
2022-08-22T08:27:33.644Z,5.88
2022-08-22T08:30:15.462Z,5.40
2022-08-22T08:32:51.113Z,6.07
2022-08-22T08:35:29.064Z,7.13
2022-08-22T08:37:59.436Z,9.27
2022-08-22T08:40:33.477Z,5.50
2022-08-22T08:43:29.778Z,8.25
2022-08-22T08:46:09.117Z,6.18
2022-08-22T08:49:24.872Z,6.72
2022-08-22T08:52:14.501Z,5.75
2022-08-22T08:55:00.575Z,8.02
2022-08-22T08:57:41.533Z,5.40
2022-08-22T09:00:18.040Z,6.70
2022-08-22T09:03:06.861Z,8.75
2022-08-22T09:06:19.896Z,6.75
2022-08-22T09:08:47.663Z,6.30
2022-08-22T09:11:36.204Z,5.60
2022-08-22T09:14:48.916Z,8.63
2022-08-22T09:17:46.226Z,9.07
2022-08-22T09:20:19.476Z,9.68
2022-08-22T09:23:13.865Z,7.35
2022-08-22T09:26:02.282Z,5.50
2022-08-22T09:28:54.165Z,4.35
2022-08-22T09:34:35.759Z,6.25
2022-08-22T09:37:21.719Z,5.03
2022-08-22T09:39:53.080Z,7.28
2022-08-22T09:42:38.410Z,7.63
2022-08-22T09:45:45.579Z,6.90
2022-08-22T09:48:56.411Z,4.72
2022-08-22T09:51:56.480Z,6.63
2022-08-22T09:54:38.103Z,4.88
2022-08-22T09:57:34.762Z,8.07
2022-08-22T10:00:32.534Z,9.38
2022-08-22T10:03:18.512Z,4.35
2022-08-22T10:05:48.224Z,4.10
2022-08-22T10:08:31.351Z,3.17
2022-08-22T10:11:20.949Z,7.75
2022-08-22T10:14:00.588Z,3.92
2022-08-22T10:16:59.798Z,3.00
2022-08-22T10:19:40.376Z,5.15
2022-08-22T10:22:56.341Z,3.35
2022-08-22T10:25:42.445Z,2.72
2022-08-22T10:28:15.893Z,1.90
2022-08-22T10:30:49.572Z,2.15
2022-08-22T10:33:29.097Z,6.15
2022-08-22T10:36:11.955Z,2.53
2022-08-22T10:38:53.244Z,3.80
2022-08-22T10:42:05.980Z,1.65
2022-08-22T10:44:48.959Z,1.98
2022-08-22T10:49:59.008Z,1.38
2022-08-22T10:52:49.323Z,3.28
2022-08-22T10:55:24.975Z,2.55
2022-08-22T10:58:13.614Z,3.28
2022-08-22T11:00:58.415Z,1.58
2022-08-22T11:03:57.142Z,3.13
2022-08-22T11:06:33.626Z,3.85
2022-08-22T11:09:10.777Z,2.17
2022-08-22T11:11:40.620Z,2.92
2022-08-22T11:14:40.583Z,5.30
2022-08-22T11:17:28.002Z,2.20
2022-08-22T11:20:20.566Z,3.08
2022-08-22T11:23:48.245Z,3.95
2022-08-22T11:26:47.019Z,1.85
2022-08-22T11:29:26.791Z,3.47
2022-08-22T11:32:23.412Z,3.53
2022-08-22T11:35:09.516Z,6.53
2022-08-22T11:37:48.308Z,2.88
2022-08-22T11:40:39.654Z,4.65
2022-08-22T11:43:32.561Z,5.88
2022-08-22T11:46:21.182Z,4.32
2022-08-22T11:49:15.979Z,3.17
2022-08-22T11:51:58.303Z,6.20
2022-08-22T11:54:32.401Z,6.07
2022-08-22T12:02:05.051Z,3.85
2022-08-22T12:04:42.497Z,5.03
2022-08-22T12:07:18.853Z,3.50
2022-08-22T12:10:18.694Z,3.45
2022-08-22T12:13:20.670Z,4.05
2022-08-22T12:16:19.422Z,4.50
2022-08-22T12:19:06.555Z,4.78
2022-08-22T12:21:49.625Z,5.68
2022-08-22T12:24:37.542Z,4.57
2022-08-22T12:28:00.562Z,5.95
2022-08-22T12:30:59.174Z,4.47
2022-08-22T12:34:08.512Z,7.35
2022-08-22T12:36:46.582Z,4.47
2022-08-22T12:39:26.195Z,4.40
2022-08-22T12:42:15.883Z,4.82
2022-08-22T12:45:02.021Z,4.93
2022-08-22T12:47:56.237Z,7.78
2022-08-22T12:50:26.838Z,4.72
2022-08-22T12:53:20.054Z,4.65
2022-08-22T12:56:10.529Z,4.68
2022-08-22T12:59:12.345Z,3.53
2022-08-22T13:01:44.147Z,6.18
2022-08-22T13:04:33.276Z,3.88
2022-08-22T13:07:17.410Z,2.78
2022-08-22T13:10:03.648Z,2.58
2022-08-22T13:12:50.569Z,4.35
2022-08-22T13:15:27.529Z,3.97
2022-08-22T13:18:13.279Z,1.70
2022-08-22T13:20:50.379Z,2.47
2022-08-22T13:23:26.068Z,2.85
2022-08-22T13:26:12.806Z,1.52
2022-08-22T13:29:24.067Z,1.00
2022-08-22T13:32:01.881Z,6.25
2022-08-22T13:34:45.704Z,3.15
2022-08-22T13:37:24.798Z,5.88
2022-08-22T13:39:58.822Z,4.22
2022-08-22T13:42:30.881Z,1.92
2022-08-22T13:45:04.604Z,2.10
2022-08-22T13:47:39.283Z,1.02
2022-08-22T13:50:19.897Z,1.73
2022-08-22T13:53:19.612Z,2.85
2022-08-22T13:56:07.291Z,1.45
2022-08-22T13:59:03.287Z,3.00
2022-08-22T14:01:34.202Z,3.97
2022-08-22T14:04:32.162Z,2.63
2022-08-22T14:07:02.233Z,5.15
2022-08-22T14:10:06.338Z,5.45
2022-08-22T14:13:05.461Z,3.70
2022-08-22T14:15:46.040Z,4.55
2022-08-22T14:18:15.777Z,4.15
2022-08-22T14:20:47.630Z,1.88
2022-08-22T14:23:29.081Z,4.45
2022-08-22T14:25:57.441Z,4.97
2022-08-22T14:28:28.565Z,5.55
2022-08-22T14:31:13.217Z,5.22
2022-08-22T14:33:46.717Z,7.10
2022-08-22T14:36:22.622Z,2.95
2022-08-22T14:39:16.539Z,6.95
2022-08-22T14:41:59.442Z,4.22
2022-08-22T14:44:46.011Z,4.97
2022-08-22T14:47:55.659Z,5.45
2022-08-22T14:50:38.747Z,6.80
2022-08-22T14:53:26.514Z,8.27
2022-08-22T14:56:07.980Z,5.20
2022-08-22T14:58:53.190Z,3.97
2022-08-22T15:01:24.335Z,6.00
2022-08-22T15:04:06.401Z,4.10
2022-08-22T15:06:38.834Z,3.65
2022-08-22T15:09:28.513Z,9.48
2022-08-22T15:12:01.722Z,3.80
2022-08-22T15:14:37.218Z,5.72
2022-08-22T15:17:08.574Z,5.75
2022-08-22T15:19:41.176Z,5.75
2022-08-22T15:22:27.949Z,4.75
2022-08-22T15:25:23.341Z,4.93
2022-08-22T15:27:57.956Z,4.53
2022-08-22T15:30:34.210Z,5.38
2022-08-22T15:33:21.505Z,4.75
2022-08-22T15:35:51.773Z,7.28
2022-08-22T15:38:39.214Z,5.82
2022-08-22T15:41:31.428Z,3.67
2022-08-22T15:44:13.879Z,3.38
2022-08-22T15:47:03.146Z,5.55
2022-08-22T15:49:36.015Z,2.28
2022-08-22T15:52:08.768Z,1.23
2022-08-22T15:55:05.341Z,2.00
2022-08-22T15:57:40.386Z,2.95
2022-08-22T16:00:30.376Z,2.92
2022-08-22T16:03:24.519Z,3.58
2022-08-22T16:05:59.008Z,5.63
2022-08-22T16:08:47.793Z,4.70
2022-08-22T16:11:33.099Z,2.55
2022-08-22T16:14:45.347Z,5.68
2022-08-22T16:17:30.994Z,2.00
2022-08-22T16:20:25.958Z,3.40
2022-08-22T16:22:56.608Z,4.78
2022-08-22T16:25:47.534Z,4.70
2022-08-22T16:28:58.904Z,1.70
2022-08-22T16:31:32.783Z,4.57
2022-08-22T16:34:38.310Z,1.92
2022-08-22T16:37:08.805Z,4.28
2022-08-22T16:39:43.593Z,3.53
2022-08-22T16:42:14.485Z,2.67
2022-08-22T16:45:05.447Z,3.25
2022-08-22T16:47:33.371Z,4.85
2022-08-22T16:50:22.221Z,2.92
2022-08-22T16:53:07.999Z,2.65
2022-08-22T16:55:39.862Z,1.73
2022-08-22T16:58:56.929Z,3.45
2022-08-22T17:01:48.207Z,2.10
2022-08-22T17:04:24.360Z,1.52
2022-08-22T17:07:03.568Z,3.13
2022-08-22T17:09:31.039Z,3.95
2022-08-22T17:12:07.007Z,3.90
2022-08-22T17:14:48.413Z,4.43
2022-08-22T17:17:34.341Z,4.68
2022-08-22T17:20:27.219Z,3.53
2022-08-22T17:23:21.075Z,3.67
2022-08-22T17:26:26.321Z,3.60
2022-08-22T17:29:03.008Z,3.47
2022-08-22T17:31:30.699Z,1.55
2022-08-22T17:34:04.347Z,4.10
2022-08-22T17:36:40.677Z,3.33
2022-08-22T17:39:34.975Z,4.25
2022-08-22T17:42:21.335Z,5.25
2022-08-22T17:45:28.066Z,3.90
2022-08-22T17:48:25.798Z,3.90
2022-08-22T17:51:03.229Z,7.97
2022-08-22T17:53:44.363Z,5.82
2022-08-22T17:56:32.162Z,6.75
2022-08-22T17:59:20.965Z,8.43
2022-08-22T18:01:50.974Z,6.65
2022-08-22T18:07:05.054Z,7.70
2022-08-22T18:09:39.566Z,6.63
2022-08-22T18:12:17.724Z,7.63
2022-08-22T18:14:53.355Z,3.25
2022-08-22T18:17:37.410Z,6.40
2022-08-22T18:20:25.584Z,8.20
2022-08-22T18:23:02.386Z,2.90
2022-08-22T18:25:40.827Z,5.80
2022-08-22T18:28:31.229Z,5.45
2022-08-22T18:31:08.099Z,2.75
2022-08-22T18:33:49.530Z,2.92
2022-08-22T18:36:30.182Z,3.30
2022-08-22T18:39:06.833Z,2.65
2022-08-22T18:41:57.212Z,6.07
2022-08-22T18:44:31.354Z,4.00
2022-08-22T18:47:24.558Z,2.85
2022-08-22T18:49:54.634Z,3.35
2022-08-22T18:52:35.288Z,2.13
2022-08-22T18:55:24.336Z,5.43
2022-08-22T18:57:54.562Z,2.80
2022-08-22T19:00:42.908Z,2.53
2022-08-22T19:03:41.036Z,3.75
2022-08-22T19:06:35.270Z,5.18
2022-08-22T19:09:27.130Z,5.93
2022-08-22T19:12:16.137Z,5.70
2022-08-22T19:15:07.274Z,4.55
2022-08-22T19:17:46.638Z,5.25
2022-08-22T19:20:56.183Z,6.28
2022-08-22T19:23:32.729Z,5.95
2022-08-22T19:26:23.866Z,7.70
2022-08-22T19:28:59.614Z,1.58
2022-08-22T19:31:36.082Z,1.13
2022-08-22T19:34:25.499Z,1.67
2022-08-22T19:40:02.516Z,1.42
2022-08-22T19:42:36.291Z,2.05
2022-08-22T19:45:21.726Z,1.73
2022-08-22T19:48:22.766Z,1.63
2022-08-22T19:51:07.805Z,1.38
2022-08-22T19:53:42.375Z,1.40
2022-08-22T19:56:19.571Z,1.75
2022-08-22T19:59:06.646Z,4.78
2022-08-22T20:01:37.246Z,1.85
2022-08-22T20:04:20.601Z,1.38
2022-08-22T20:06:55.703Z,3.60
2022-08-22T20:09:38.504Z,4.00
2022-08-22T20:12:33.157Z,3.13
2022-08-22T20:15:18.986Z,3.08
2022-08-22T20:18:11.530Z,2.83
2022-08-22T20:20:38.630Z,2.95
2022-08-22T20:23:20.467Z,4.20
2022-08-22T20:25:51.892Z,3.80
2022-08-22T20:28:40.515Z,4.00
2022-08-22T20:31:19.074Z,3.45
2022-08-22T20:33:47.043Z,2.83
2022-08-22T20:36:28.837Z,4.50
2022-08-22T20:39:10.879Z,3.53
2022-08-22T20:41:46.547Z,2.83
2022-08-22T20:44:29.797Z,5.15
2022-08-22T20:47:10.208Z,8.38
2022-08-22T20:49:47.305Z,7.20
2022-08-22T20:52:31.774Z,3.67
2022-08-22T20:55:08.157Z,3.22
2022-08-22T21:00:13.794Z,5.13
2022-08-22T21:05:11.892Z,4.22
2022-08-22T21:07:42.882Z,4.00
2022-08-22T21:10:37.159Z,4.45
2022-08-22T21:13:15.854Z,2.58
2022-08-22T21:15:49.499Z,3.83
2022-08-22T21:18:38.291Z,6.30
2022-08-22T21:21:17.631Z,4.88
2022-08-22T21:35:55.871Z,6.97
2022-08-22T21:38:24.045Z,2.95
2022-08-22T21:40:52.320Z,1.30
2022-08-22T21:43:34.829Z,1.73
2022-08-22T21:46:03.255Z,3.75
2022-08-22T21:48:38.363Z,1.42
2022-08-22T21:51:32.021Z,1.25
2022-08-22T21:54:21.815Z,2.20
2022-08-22T21:56:51.056Z,3.42
2022-08-22T21:59:21.304Z,2.03
2022-08-22T22:01:55.469Z,2.03
2022-08-22T22:04:23.412Z,1.48
2022-08-22T22:06:50.835Z,0.63
2022-08-22T22:09:18.301Z,2.47
2022-08-22T22:11:45.816Z,2.10
2022-08-22T22:14:13.468Z,1.85
2022-08-22T22:16:40.924Z,1.13
2022-08-22T22:19:08.973Z,1.38
2022-08-22T22:24:06.118Z,1.00
2022-08-22T22:26:34.529Z,1.20
2022-08-22T22:29:05.178Z,1.40
2022-08-22T22:31:32.879Z,1.42
2022-08-22T22:34:01.469Z,1.83
2022-08-22T22:36:29.443Z,0.88
2022-08-22T22:38:57.146Z,2.20
2022-08-22T22:41:25.957Z,1.95
2022-08-22T22:43:54.666Z,1.00
2022-08-22T22:46:23.222Z,1.90
2022-08-22T22:48:50.886Z,1.30
2022-08-22T22:51:18.726Z,2.22
2022-08-22T22:53:46.730Z,1.98
2022-08-22T22:56:22.584Z,2.05
2022-08-22T22:58:59.250Z,1.48
2022-08-22T23:01:29.413Z,3.58
2022-08-22T23:03:59.536Z,3.28
2022-08-22T23:06:33.692Z,1.45
2022-08-22T23:09:01.482Z,1.40
2022-08-22T23:11:30.972Z,1.70
2022-08-22T23:13:58.555Z,1.45
2022-08-22T23:16:28.639Z,1.60
2022-08-22T23:18:56.436Z,1.92
2022-08-22T23:21:30.145Z,1.40
2022-08-22T23:23:59.469Z,1.83
2022-08-22T23:26:27.720Z,1.48
2022-08-22T23:28:56.299Z,1.65
2022-08-22T23:31:30.384Z,4.45
2022-08-22T23:34:03.044Z,1.02
2022-08-22T23:36:30.776Z,2.10
2022-08-22T23:38:58.353Z,0.80
2022-08-22T23:41:26.732Z,1.10
2022-08-22T23:43:55.529Z,0.90
2022-08-22T23:46:25.131Z,3.35
2022-08-22T23:48:53.206Z,3.03
2022-08-22T23:51:23.397Z,1.17
2022-08-22T23:53:52.439Z,2.28
2022-08-22T23:56:26.933Z,0.60
2022-08-22T23:58:55.206Z,1.20
